54.0°F
Current conditions from King Hill
Updated every 5 minutes
 
  Sunday April 20, 2014

Station Historical Data
Daily Summary for January 13, 2010 Units:  Metric    English   Both
« Previous Day
Next Day »
Daily Weekly Monthly Yearly Custom
  High: Low: Average:
Temperature: -8.5 °C -19.1 °C -12.7 °C
Dew Point: -10 °C -21.3 °C -15.2 °C
Humidity: 92% 66% 81%
Wind Speed: 8km/h 1.6km/h 3.9km/h
Wind Gust: 16.1km/h - -
Wind- - SSW
Pressure: 1021.9 hPa 1019.5 hPa -
Precipitation: 0 mm    
Historical Graphs
 
 
Tabular Data for January 13, 2010
Time Temperature Dew Point Pressure Wind Wind Speed Wind Gust Humidity Daily Rainfall
00:02 -15.1 °C -18.3 °C 1020.2 hPa NNW 1.6 km/h 12.9 km/h 76% 0 mm
00:07 -15.1 °C -18.4 °C 1020.2 hPa Calm   4.8 km/h 76% 0 mm
00:12 -15.1 °C -18.4 °C 1020.2 hPa Calm   3.2 km/h 76% 0 mm
00:17 -15.2 °C -18.4 °C 1020.2 hPa Calm   3.2 km/h 76% 0 mm
00:22 -15.2 °C -18.3 °C 1020.2 hPa Calm   1.6 km/h 77% 0 mm
00:27 -15.1 °C -18.2 °C 1020.2 hPa NNE 1.6 km/h 8 km/h 77% 0 mm
00:32 -15.1 °C -18.2 °C 1019.9 hPa Calm   8 km/h 77% 0 mm
00:37 -15 °C -18.1 °C 1019.9 hPa Calm   3.2 km/h 77% 0 mm
00:42 -15 °C -16.8 °C 1019.9 hPa Calm   4.8 km/h 86% 0 mm
00:47 -15.1 °C -18.2 °C 1019.9 hPa Calm   4.8 km/h 77% 0 mm
00:52 -15.3 °C -18.4 °C 1019.9 hPa Calm   1.6 km/h 77% 0 mm
00:57 -15.3 °C -18.2 °C 1019.9 hPa Calm   3.2 km/h 78% 0 mm
01:02 -15.3 °C -18.2 °C 1019.9 hPa Calm   3.2 km/h 78% 0 mm
01:07 -15.3 °C -18.2 °C 1019.9 hPa Calm   3.2 km/h 78% 0 mm
01:12 -15.2 °C -18.2 °C 1019.9 hPa Calm   3.2 km/h 78% 0 mm
01:17 -15.3 °C -18.2 °C 1019.9 hPa Calm   1.6 km/h 78% 0 mm
01:22 -15.4 °C -18.4 °C 1020.2 hPa Calm     78% 0 mm
01:27 -15.6 °C -18.4 °C 1020.2 hPa Calm     79% 0 mm
01:32 -15.7 °C -18.5 °C 1020.2 hPa Calm     79% 0 mm
01:37 -15.7 °C -18.6 °C 1020.2 hPa Calm     79% 0 mm
01:42 -15.8 °C -18.6 °C 1020.2 hPa Calm     79% 0 mm
01:47 -16 °C -18.8 °C 1020.2 hPa Calm     79% 0 mm
01:52 -16.2 °C -18.8 °C 1020.2 hPa Calm     80% 0 mm
01:57 -16.3 °C -19.1 °C 1020.2 hPa Calm     79% 0 mm
02:02 -16.7 °C -19.4 °C 1020.2 hPa Calm     79% 0 mm
02:07 -16.8 °C -19.3 °C 1020.2 hPa Calm     81% 0 mm
02:12 -16.7 °C -19.2 °C 1020.2 hPa Calm     81% 0 mm
02:17 -16.6 °C -18.9 °C 1020.2 hPa Calm     82% 0 mm
02:22 -16.5 °C -19 °C 1020.2 hPa Calm     81% 0 mm
02:27 -16.5 °C -19 °C 1020.2 hPa Calm     81% 0 mm
02:32 -16.4 °C -18.9 °C 1020.2 hPa Calm     81% 0 mm
02:37 -16.5 °C -19 °C 1020.2 hPa Calm     81% 0 mm
02:42 -16.9 °C -19.6 °C 1020.2 hPa Calm     80% 0 mm
02:47 -17.1 °C -19.6 °C 1020.2 hPa Calm     81% 0 mm
02:52 -17.4 °C -19.9 °C 1020.5 hPa Calm     81% 0 mm
02:57 -17.2 °C -19.5 °C 1020.5 hPa Calm     82% 0 mm
03:02 -16.8 °C -19 °C 1020.5 hPa Calm   1.6 km/h 83% 0 mm
03:07 -16.9 °C -19.4 °C 1020.5 hPa Calm   1.6 km/h 81% 0 mm
03:12 -17.1 °C -19.6 °C 1020.5 hPa Calm   1.6 km/h 81% 0 mm
03:17 -17.1 °C -19.6 °C 1020.5 hPa Calm   3.2 km/h 81% 0 mm
03:22 -17.3 °C -19.8 °C 1020.5 hPa Calm   3.2 km/h 81% 0 mm
03:27 -17.7 °C -20.3 °C 1020.5 hPa Calm     80% 0 mm
03:32 -17.9 °C -20.3 °C 1020.5 hPa Calm     81% 0 mm
03:37 -18.2 °C -20.6 °C 1020.5 hPa Calm   1.6 km/h 81% 0 mm
03:42 -18 °C -20.2 °C 1020.9 hPa Calm   1.6 km/h 83% 0 mm
03:47 -18 °C -20.3 °C 1020.9 hPa Calm     82% 0 mm
03:52 -18.1 °C -20.4 °C 1020.9 hPa Calm     82% 0 mm
03:57 -18.3 °C -20.7 °C 1020.9 hPa Calm     82% 0 mm
04:02 -18.6 °C -20.9 °C 1020.9 hPa Calm     82% 0 mm
04:07 -18.5 °C -20.7 °C 1020.9 hPa Calm     83% 0 mm
04:12 -18.5 °C -20.7 °C 1020.9 hPa Calm     83% 0 mm
04:17 -18.2 °C -20.3 °C 1020.9 hPa Calm     84% 0 mm
04:22 -18.1 °C -20.2 °C 1020.9 hPa Calm     84% 0 mm
04:27 -18.1 °C -20.1 °C 1020.9 hPa Calm     84% 0 mm
04:32 -18.2 °C -20.4 °C 1020.9 hPa Calm     83% 0 mm
04:37 -18.1 °C -20.1 °C 1020.9 hPa Calm     84% 0 mm
04:42 -17.9 °C -19.9 °C 1020.9 hPa Calm     84% 0 mm
04:47 -17.6 °C -19.6 °C 1020.9 hPa NE 1.6 km/h 3.2 km/h 84% 0 mm
04:52 -17.2 °C -19.2 °C 1020.9 hPa Calm   3.2 km/h 84% 0 mm
04:57 -17.1 °C -19.3 °C 1020.9 hPa Calm   4.8 km/h 83% 0 mm
05:02 -17 °C -19.2 °C 1020.9 hPa Calm   4.8 km/h 83% 0 mm
05:07 -17.2 °C -19.6 °C 1020.9 hPa Calm   3.2 km/h 82% 0 mm
05:12 -17.4 °C -19.7 °C 1020.9 hPa Calm   1.6 km/h 82% 0 mm
05:17 -17.7 °C -20 °C 1020.9 hPa Calm     82% 0 mm
05:22 -17.7 °C -19.8 °C 1020.9 hPa Calm     83% 0 mm
05:27 -17.7 °C -20.1 °C 1020.9 hPa Calm     82% 0 mm
05:32 -17.7 °C -19.8 °C 1020.9 hPa Calm     83% 0 mm
05:37 -17.6 °C -19.8 °C 1020.9 hPa Calm     83% 0 mm
05:42 -17.4 °C -19.6 °C 1020.9 hPa Calm     83% 0 mm
05:47 -17.4 °C -19.6 °C 1020.9 hPa Calm     83% 0 mm
05:52 -17.6 °C -19.9 °C 1020.9 hPa Calm     82% 0 mm
05:57 -17.8 °C -20.2 °C 1020.9 hPa Calm     82% 0 mm
06:02 -18.2 °C -20.7 °C 1020.9 hPa Calm     81% 0 mm
06:07 -18.4 °C -20.8 °C 1021.2 hPa Calm     82% 0 mm
06:12 -18.6 °C -20.9 °C 1020.9 hPa Calm     82% 0 mm
06:17 -18.8 °C -21.1 °C 1021.2 hPa Calm     82% 0 mm
06:22 -18.8 °C -20.9 °C 1021.2 hPa Calm     83% 0 mm
06:27 -18.8 °C -21 °C 1021.2 hPa Calm     83% 0 mm
06:32 -18.9 °C -21.1 °C 1021.2 hPa Calm     83% 0 mm
06:37 -19.1 °C -21.3 °C 1021.2 hPa Calm     82% 0 mm
06:42 -18.7 °C -20.8 °C 1021.2 hPa Calm     84% 0 mm
06:47 -18.6 °C -20.7 °C 1021.2 hPa Calm     84% 0 mm
06:52 -18.4 °C -20.5 °C 1021.2 hPa Calm     84% 0 mm
06:57 -18.6 °C -20.7 °C 1021.2 hPa Calm     83% 0 mm
07:02 -18.7 °C -20.9 °C 1021.2 hPa Calm     83% 0 mm
07:07 -18.4 °C -20.5 °C 1021.2 hPa Calm     84% 0 mm
07:12 -18.4 °C -20.6 °C 1021.6 hPa Calm     83% 0 mm
07:17 -18.4 °C -20.6 °C 1021.6 hPa Calm     83% 0 mm
07:22 -18.3 °C -20.5 °C 1021.6 hPa Calm     83% 0 mm
07:27 -18.6 °C -20.9 °C 1021.6 hPa Calm     82% 0 mm
07:32 -18.4 °C -20.6 °C 1021.6 hPa Calm     83% 0 mm
07:37 -17.9 °C -20 °C 1021.6 hPa Calm     84% 0 mm
07:42 -17.7 °C -19.8 °C 1021.6 hPa Calm     84% 0 mm
07:47 -17.7 °C -19.8 °C 1021.6 hPa Calm     84% 0 mm
07:52 -17.2 °C -19.3 °C 1021.9 hPa Calm     84% 0 mm
07:57 -17 °C -19.1 °C 1021.6 hPa Calm     84% 0 mm
08:02 -17.2 °C -19.4 °C 1021.6 hPa Calm     83% 0 mm
08:07 -17.4 °C -19.8 °C 1021.6 hPa Calm     82% 0 mm
08:12 -17.6 °C -19.9 °C 1021.6 hPa Calm     82% 0 mm
08:17 -17.7 °C -20.2 °C 1021.9 hPa Calm     81% 0 mm
08:22 -17.7 °C -20 °C 1021.9 hPa Calm     82% 0 mm
08:27 -17.2 °C -19.4 °C 1021.9 hPa Calm   1.6 km/h 83% 0 mm
08:32 -16.7 °C -18.7 °C 1021.6 hPa Calm   1.6 km/h 84% 0 mm
08:37 -16.5 °C -18.7 °C 1021.6 hPa Calm   1.6 km/h 83% 0 mm
08:42 -16.1 °C -18.3 °C 1021.6 hPa Calm     83% 0 mm
08:47 -15.7 °C -17.8 °C 1021.6 hPa Calm     84% 0 mm
08:52 -15.3 °C -17.4 °C 1021.6 hPa Calm     84% 0 mm
08:57 -14.8 °C -17 °C 1021.6 hPa Calm     83% 0 mm
09:02 -14.3 °C -16.6 °C 1021.6 hPa Calm     83% 0 mm
09:07 -13.8 °C -16.2 °C 1021.9 hPa Calm     82% 0 mm
09:12 -13.4 °C -16 °C 1021.9 hPa Calm     81% 0 mm
09:17 -13.1 °C -15.9 °C 1021.9 hPa Calm     79% 0 mm
09:22 -12.8 °C -15.7 °C 1021.9 hPa Calm     79% 0 mm
09:27 -12.7 °C -15.6 °C 1021.9 hPa Calm     79% 0 mm
09:32 -12.7 °C -15.8 °C 1021.9 hPa Calm     78% 0 mm
09:37 -12.6 °C -16.1 °C 1021.9 hPa SSW 1.6 km/h 4.8 km/h 75% 0 mm
09:42 -12.3 °C -16.3 °C 1021.9 hPa SSW 3.2 km/h 4.8 km/h 72% 0 mm
09:47 -12 °C -16.3 °C 1021.9 hPa SSW 4.8 km/h 6.4 km/h 70% 0 mm
09:52 -11.9 °C -16.5 °C 1021.9 hPa SSW 1.6 km/h 6.4 km/h 69% 0 mm
09:57 -12 °C -16.7 °C 1021.9 hPa SW 6.4 km/h 8 km/h 68% 0 mm
10:02 -12 °C -16.9 °C 1021.9 hPa SSW 3.2 km/h 8 km/h 67% 0 mm
10:07 -11.9 °C -16.7 °C 1021.9 hPa SSW 3.2 km/h 8 km/h 68% 0 mm
10:12 -11.8 °C -16.5 °C 1021.9 hPa SSW 4.8 km/h 8 km/h 68% 0 mm
10:17 -11.7 °C -16.4 °C 1021.9 hPa SSW 6.4 km/h 9.7 km/h 68% 0 mm
10:22 -11.6 °C -16.5 °C 1021.9 hPa SSW 8 km/h 11.3 km/h 67% 0 mm
10:27 -11.7 °C -16.4 °C 1021.9 hPa SSW 6.4 km/h 11.3 km/h 68% 0 mm
10:32 -11.6 °C -16.3 °C 1021.9 hPa SSW 4.8 km/h 9.7 km/h 68% 0 mm
10:37 -11.5 °C -16.2 °C 1021.9 hPa SSW 3.2 km/h 9.7 km/h 68% 0 mm
10:42 -11.4 °C -16.3 °C 1021.9 hPa SSW 4.8 km/h 9.7 km/h 67% 0 mm
10:47 -11.4 °C -16.1 °C 1021.6 hPa SSW 3.2 km/h 8 km/h 68% 0 mm
10:52 -11.3 °C -16.2 °C 1021.9 hPa SSW 4.8 km/h 8 km/h 67% 0 mm
10:57 -11.4 °C -16.5 °C 1021.6 hPa SSW 6.4 km/h 11.3 km/h 66% 0 mm
11:02 -11.4 °C -16.3 °C 1021.6 hPa SSW 4.8 km/h 11.3 km/h 67% 0 mm
11:07 -11.3 °C -16.2 °C 1021.6 hPa SSW 4.8 km/h 12.9 km/h 67% 0 mm
11:12 -11.1 °C -15.8 °C 1021.6 hPa SSW 3.2 km/h 12.9 km/h 68% 0 mm
11:17 -11 °C -15.6 °C 1021.6 hPa SSW 6.4 km/h 11.3 km/h 69% 0 mm
11:22 -11 °C -15.6 °C 1021.6 hPa SSW 4.8 km/h 12.9 km/h 69% 0 mm
11:27 -10.8 °C -15.2 °C 1021.6 hPa South 4.8 km/h 12.9 km/h 70% 0 mm
11:32 -10.7 °C -15.1 °C 1021.2 hPa SSW 4.8 km/h 9.7 km/h 70% 0 mm
11:37 -10.3 °C -14.9 °C 1021.2 hPa SSW 4.8 km/h 8 km/h 69% 0 mm
11:42 -10.2 °C -14.9 °C 1021.2 hPa SSW 4.8 km/h 8 km/h 68% 0 mm
11:47 -10.2 °C -14.9 °C 1021.2 hPa SSW 4.8 km/h 8 km/h 68% 0 mm
11:52 -10.2 °C -14.8 °C 1021.2 hPa SSW 4.8 km/h 9.7 km/h 69% 0 mm
11:57 -10.2 °C -14.8 °C 1020.9 hPa SSW 6.4 km/h 9.7 km/h 69% 0 mm
12:02 -10.2 °C -14.7 °C 1020.9 hPa SSW 4.8 km/h 9.7 km/h 70% 0 mm
12:07 -10.2 °C -14.7 °C 1020.9 hPa SSW 4.8 km/h 8 km/h 70% 0 mm
12:12 -10.2 °C -14.5 °C 1020.5 hPa SSW 3.2 km/h 8 km/h 71% 0 mm
12:17 -10.2 °C -14.5 °C 1020.2 hPa SSW 4.8 km/h 8 km/h 71% 0 mm
12:22 -10.2 °C -14.3 °C 1020.2 hPa SSW 4.8 km/h 8 km/h 72% 0 mm
12:27 -10.2 °C -14.1 °C 1020.2 hPa SSW 4.8 km/h 8 km/h 73% 0 mm
12:32 -10.2 °C -14.1 °C 1020.2 hPa SSW 4.8 km/h 8 km/h 73% 0 mm
12:37 -10.4 °C -14.1 °C 1020.2 hPa SSW 4.8 km/h 8 km/h 74% 0 mm
12:42 -10.4 °C -14.2 °C 1020.2 hPa SSW 4.8 km/h 9.7 km/h 74% 0 mm
12:47 -10.4 °C -13.8 °C 1020.2 hPa SSW 3.2 km/h 9.7 km/h 76% 0 mm
12:52 -10.3 °C -13.6 °C 1020.2 hPa South 3.2 km/h 8 km/h 77% 0 mm
12:57 -10.2 °C -13.4 °C 1019.9 hPa South 3.2 km/h 8 km/h 77% 0 mm
13:02 -10.1 °C -13.2 °C 1019.9 hPa Calm   8 km/h 78% 0 mm
13:07 -10.2 °C -13.3 °C 1019.9 hPa SSW 3.2 km/h 6.4 km/h 78% 0 mm
13:12 -10.2 °C -13.1 °C 1019.9 hPa SSW 1.6 km/h 6.4 km/h 79% 0 mm
13:17 -10 °C -12.9 °C 1019.5 hPa South 1.6 km/h 6.4 km/h 79% 0 mm
13:22 -9.8 °C -12.8 °C 1019.9 hPa Calm   4.8 km/h 79% 0 mm
13:27 -9.7 °C -12.6 °C 1019.9 hPa SW 3.2 km/h 4.8 km/h 79% 0 mm
13:32 -9.7 °C -12.6 °C 1019.5 hPa SW 3.2 km/h 4.8 km/h 79% 0 mm
13:37 -9.7 °C -12.4 °C 1019.5 hPa SW 1.6 km/h 4.8 km/h 80% 0 mm
13:42 -9.5 °C -12.3 °C 1019.5 hPa SSW 1.6 km/h 4.8 km/h 80% 0 mm
13:47 -9.4 °C -12.3 °C 1019.5 hPa SW 3.2 km/h 4.8 km/h 80% 0 mm
13:52 -9.6 °C -12.3 °C 1019.9 hPa SSW 1.6 km/h 4.8 km/h 80% 0 mm
13:57 -9.7 °C -12.4 °C 1019.5 hPa SSW 3.2 km/h 6.4 km/h 80% 0 mm
14:02 -9.8 °C -12.4 °C 1019.5 hPa Calm   6.4 km/h 81% 0 mm
14:07 -9.8 °C -12.5 °C 1019.5 hPa SSW 1.6 km/h 6.4 km/h 81% 0 mm
14:12 -9.8 °C -12.3 °C 1019.5 hPa SSW 1.6 km/h 4.8 km/h 82% 0 mm
14:17 -9.8 °C -12.3 °C 1019.9 hPa Calm   4.8 km/h 82% 0 mm
14:22 -9.7 °C -12.2 °C 1019.5 hPa SSW 1.6 km/h 3.2 km/h 82% 0 mm
14:27 -9.6 °C -12.1 °C 1019.9 hPa SSW 1.6 km/h 4.8 km/h 82% 0 mm
14:32 -9.6 °C -12.1 °C 1019.9 hPa SW 3.2 km/h 6.4 km/h 82% 0 mm
14:37 -9.6 °C -12.1 °C 1019.9 hPa SW 3.2 km/h 6.4 km/h 82% 0 mm
14:42 -9.7 °C -12.2 °C 1019.9 hPa SW 3.2 km/h 6.4 km/h 82% 0 mm
14:47 -9.7 °C -12.2 °C 1019.5 hPa SSW 3.2 km/h 6.4 km/h 82% 0 mm
14:52 -9.7 °C -12.1 °C 1019.5 hPa SSW 3.2 km/h 6.4 km/h 83% 0 mm
14:57 -9.8 °C -12.1 °C 1019.5 hPa SW 3.2 km/h 6.4 km/h 83% 0 mm
15:02 -9.8 °C -12.1 °C 1019.5 hPa SW 4.8 km/h 6.4 km/h 83% 0 mm
15:07 -9.8 °C -10.9 °C 1019.5 hPa SSW 3.2 km/h 6.4 km/h 92% 0 mm
15:12 -9.8 °C -12 °C 1019.5 hPa SW 3.2 km/h 6.4 km/h 84% 0 mm
15:17 -9.8 °C -12 °C 1019.5 hPa SW 1.6 km/h 6.4 km/h 84% 0 mm
15:22 -9.8 °C -12 °C 1019.5 hPa SSW 3.2 km/h 6.4 km/h 84% 0 mm
15:27 -9.9 °C -12.1 °C 1019.5 hPa SSW 1.6 km/h 6.4 km/h 84% 0 mm
15:32 -9.9 °C -12.1 °C 1019.5 hPa SSW 4.8 km/h 8 km/h 84% 0 mm
15:37 -9.9 °C -12.1 °C 1019.5 hPa SSW 1.6 km/h 8 km/h 84% 0 mm
15:42 -9.9 °C -11.9 °C 1019.5 hPa SSW 1.6 km/h 6.4 km/h 85% 0 mm
15:47 -9.9 °C -11.9 °C 1019.5 hPa SSW 3.2 km/h 6.4 km/h 85% 0 mm
15:52 -9.9 °C -11.9 °C 1019.5 hPa SW 1.6 km/h 6.4 km/h 85% 0 mm
15:57 -9.8 °C -11.9 °C 1019.5 hPa Calm   6.4 km/h 85% 0 mm
16:02 -9.8 °C -11.9 °C 1019.5 hPa SSW 1.6 km/h 4.8 km/h 85% 0 mm
16:07 -9.8 °C -11.9 °C 1019.5 hPa Calm   4.8 km/h 85% 0 mm
16:12 -9.8 °C -11.9 °C 1019.5 hPa Calm   1.6 km/h 85% 0 mm
16:17 -9.8 °C -11.8 °C 1019.5 hPa SSW 1.6 km/h 4.8 km/h 85% 0 mm
16:22 -9.8 °C -11.8 °C 1019.9 hPa SSW 1.6 km/h 4.8 km/h 85% 0 mm
16:27 -9.8 °C -11.9 °C 1019.9 hPa Calm   4.8 km/h 85% 0 mm
16:32 -9.8 °C -11.9 °C 1019.5 hPa Calm   4.8 km/h 85% 0 mm
16:37 -9.8 °C -11.9 °C 1019.9 hPa SSW 1.6 km/h 4.8 km/h 85% 0 mm
16:42 -9.9 °C -11.9 °C 1019.9 hPa SW 3.2 km/h 4.8 km/h 85% 0 mm
16:47 -9.9 °C -12 °C 1019.9 hPa SSW 3.2 km/h 6.4 km/h 85% 0 mm
16:52 -10 °C -12.1 °C 1019.9 hPa SSW 1.6 km/h 6.4 km/h 85% 0 mm
16:57 -10 °C -12.1 °C 1019.9 hPa Calm   4.8 km/h 85% 0 mm
17:02 -10 °C -11.9 °C 1019.9 hPa Calm   3.2 km/h 86% 0 mm
17:07 -9.9 °C -11.8 °C 1019.9 hPa Calm   4.8 km/h 86% 0 mm
17:12 -9.9 °C -11.8 °C 1019.9 hPa SSW 1.6 km/h 4.8 km/h 86% 0 mm
17:17 -9.9 °C -11.8 °C 1019.9 hPa SSW 1.6 km/h 4.8 km/h 86% 0 mm
17:22 -9.9 °C -11.8 °C 1019.9 hPa SSW 1.6 km/h 4.8 km/h 86% 0 mm
17:27 -9.9 °C -11.8 °C 1020.2 hPa Calm   6.4 km/h 86% 0 mm
17:32 -9.9 °C -11.8 °C 1020.2 hPa Calm   6.4 km/h 86% 0 mm
17:37 -9.9 °C -11.8 °C 1020.2 hPa SSW 1.6 km/h 6.4 km/h 86% 0 mm
17:42 -9.8 °C -11.7 °C 1020.2 hPa SSW 1.6 km/h 4.8 km/h 86% 0 mm
17:47 -9.8 °C -11.7 °C 1019.9 hPa SW 1.6 km/h 4.8 km/h 86% 0 mm
17:52 -9.7 °C -11.6 °C 1020.2 hPa SW 1.6 km/h 4.8 km/h 86% 0 mm
17:57 -9.7 °C -11.6 °C 1020.2 hPa Calm   8 km/h 86% 0 mm
18:02 -9.7 °C -11.6 °C 1020.2 hPa Calm   8 km/h 86% 0 mm
18:07 -9.6 °C -11.4 °C 1020.2 hPa Calm   3.2 km/h 86% 0 mm
18:17 -9.6 °C -11.4 °C 1020.2 hPa SSW 1.6 km/h 4.8 km/h 86% 0 mm
18:21 -9.5 °C -11.4 °C 1020.2 hPa SSW 1.6 km/h 4.8 km/h 86% 0 mm
18:26 -9.5 °C -11.4 °C 1020.2 hPa SW 3.2 km/h 4.8 km/h 86% 0 mm
18:31 -9.5 °C -11.4 °C 1020.2 hPa SW 4.8 km/h 9.7 km/h 86% 0 mm
18:36 -9.5 °C -11.4 °C 1020.2 hPa SSW 4.8 km/h 9.7 km/h 86% 0 mm
18:41 -9.5 °C -11.6 °C 1020.2 hPa SSW 3.2 km/h 8 km/h 85% 0 mm
18:46 -9.5 °C -11.4 °C 1020.2 hPa SSW 4.8 km/h 9.7 km/h 86% 0 mm
18:51 -9.5 °C -11.4 °C 1020.2 hPa SSW 4.8 km/h 9.7 km/h 86% 0 mm
18:56 -9.5 °C -11.4 °C 1020.2 hPa SSW 4.8 km/h 9.7 km/h 86% 0 mm
19:01 -9.4 °C -11.3 °C 1020.2 hPa SW 6.4 km/h 9.7 km/h 86% 0 mm
19:06 -9.4 °C -11.4 °C 1020.2 hPa SSW 4.8 km/h 9.7 km/h 85% 0 mm
19:11 -9.3 °C -11.4 °C 1020.2 hPa SSW 6.4 km/h 9.7 km/h 85% 0 mm
19:16 -9.3 °C -11.4 °C 1020.2 hPa SSW 1.6 km/h 9.7 km/h 85% 0 mm
19:21 -9.3 °C -11.5 °C 1020.2 hPa SSW 4.8 km/h 9.7 km/h 84% 0 mm
19:26 -9.2 °C -11.4 °C 1020.2 hPa SW 6.4 km/h 11.3 km/h 84% 0 mm
19:31 -9.1 °C -11.4 °C 1020.2 hPa SSW 4.8 km/h 12.9 km/h 83% 0 mm
19:36 -9.1 °C -11.4 °C 1020.2 hPa SSW 6.4 km/h 12.9 km/h 83% 0 mm
19:41 -9.1 °C -11.4 °C 1020.2 hPa SSW 4.8 km/h 12.9 km/h 83% 0 mm
19:46 -9.2 °C -11.4 °C 1020.5 hPa SSW 4.8 km/h 12.9 km/h 84% 0 mm
19:51 -9.2 °C -11.4 °C 1020.5 hPa SSW 4.8 km/h 12.9 km/h 84% 0 mm
19:56 -9.2 °C -11.4 °C 1020.5 hPa SSW 6.4 km/h 12.9 km/h 84% 0 mm
20:01 -9.2 °C -11.4 °C 1020.5 hPa SSW 6.4 km/h 12.9 km/h 84% 0 mm
20:06 -9.2 °C -11.3 °C 1020.5 hPa SSW 6.4 km/h 14.5 km/h 85% 0 mm
20:11 -9.2 °C -11.4 °C 1020.5 hPa SSW 8 km/h 16.1 km/h 84% 0 mm
20:16 -9.2 °C -11.4 °C 1020.5 hPa SW 6.4 km/h 16.1 km/h 84% 0 mm
20:21 -9.3 °C -11.5 °C 1020.5 hPa SSW 8 km/h 12.9 km/h 84% 0 mm
20:26 -9.2 °C -11.4 °C 1020.5 hPa SSW 8 km/h 14.5 km/h 84% 0 mm
20:31 -9.2 °C -11.4 °C 1020.5 hPa SSW 4.8 km/h 14.5 km/h 84% 0 mm
20:36 -9.2 °C -11.4 °C 1020.5 hPa SSW 6.4 km/h 14.5 km/h 84% 0 mm
20:41 -9.3 °C -11.5 °C 1020.5 hPa SSW 4.8 km/h 12.9 km/h 84% 0 mm
20:46 -9.2 °C -11.4 °C 1020.5 hPa SSW 3.2 km/h 12.9 km/h 84% 0 mm
20:51 -9.3 °C -11.3 °C 1020.5 hPa SSW 4.8 km/h 12.9 km/h 85% 0 mm
20:56 -9.3 °C -11.3 °C 1020.5 hPa SSW 6.4 km/h 12.9 km/h 85% 0 mm
21:01 -9.3 °C -11.3 °C 1020.5 hPa SSW 4.8 km/h 12.9 km/h 85% 0 mm
21:06 -9.3 °C -11.2 °C 1020.9 hPa SSW 3.2 km/h 11.3 km/h 86% 0 mm
21:11 -9.3 °C -11.2 °C 1020.9 hPa SSW 3.2 km/h 9.7 km/h 86% 0 mm
21:16 -9.3 °C -11.2 °C 1020.5 hPa SSW 3.2 km/h 9.7 km/h 86% 0 mm
21:21 -9.3 °C -11.2 °C 1020.5 hPa SSW 3.2 km/h 8 km/h 86% 0 mm
21:26 -9.3 °C -11.2 °C 1020.5 hPa SSW 3.2 km/h 8 km/h 86% 0 mm
21:31 -9.3 °C -11.1 °C 1020.5 hPa SSW 4.8 km/h 8 km/h 87% 0 mm
21:36 -9.3 °C -11.1 °C 1020.5 hPa SW 4.8 km/h 8 km/h 87% 0 mm
21:41 -9.2 °C -11 °C 1020.5 hPa SW 3.2 km/h 9.7 km/h 87% 0 mm
21:46 -9.2 °C -10.9 °C 1020.5 hPa SSW 6.4 km/h 12.9 km/h 87% 0 mm
21:51 -9.1 °C -10.9 °C 1020.5 hPa SSW 6.4 km/h 12.9 km/h 87% 0 mm
21:56 -9.1 °C -10.8 °C 1020.5 hPa SSW 8 km/h 12.9 km/h 87% 0 mm
22:01 -9.1 °C -10.8 °C 1020.5 hPa SSW 4.8 km/h 12.9 km/h 87% 0 mm
22:06 -9.1 °C -10.8 °C 1020.5 hPa SSW 4.8 km/h 12.9 km/h 87% 0 mm
22:11 -9 °C -10.8 °C 1020.5 hPa SSW 3.2 km/h 11.3 km/h 87% 0 mm
22:16 -9 °C -10.8 °C 1020.5 hPa SSW 3.2 km/h 11.3 km/h 87% 0 mm
22:21 -8.9 °C -10.7 °C 1020.5 hPa SSW 4.8 km/h 11.3 km/h 87% 0 mm
22:26 -8.9 °C -10.7 °C 1020.5 hPa SSW 4.8 km/h 9.7 km/h 87% 0 mm
22:31 -8.9 °C -10.7 °C 1020.5 hPa SSW 6.4 km/h 9.7 km/h 87% 0 mm
22:36 -8.9 °C -10.5 °C 1020.5 hPa SSW 4.8 km/h 11.3 km/h 88% 0 mm
22:41 -8.8 °C -10.4 °C 1020.5 hPa South 1.6 km/h 11.3 km/h 88% 0 mm
22:46 -8.8 °C -10.4 °C 1020.5 hPa SSW 3.2 km/h 11.3 km/h 88% 0 mm
22:51 -8.8 °C -10.4 °C 1020.5 hPa South 3.2 km/h 11.3 km/h 88% 0 mm
22:56 -8.7 °C -10.3 °C 1020.5 hPa SSW 1.6 km/h 9.7 km/h 88% 0 mm
23:01 -8.7 °C -10.3 °C 1020.9 hPa Calm   9.7 km/h 88% 0 mm
23:06 -8.7 °C -10.3 °C 1020.9 hPa Calm   6.4 km/h 88% 0 mm
23:11 -8.6 °C -10.2 °C 1020.9 hPa Calm   3.2 km/h 88% 0 mm
23:16 -8.6 °C -10.2 °C 1020.9 hPa Calm   1.6 km/h 88% 0 mm
23:21 -8.7 °C -10.3 °C 1020.9 hPa Calm   1.6 km/h 88% 0 mm
23:26 -8.7 °C -10.3 °C 1020.9 hPa Calm     88% 0 mm
23:31 -8.8 °C -10.4 °C 1020.9 hPa Calm     88% 0 mm
23:36 -8.8 °C -10.4 °C 1020.9 hPa Calm     88% 0 mm
23:41 -8.8 °C -10.4 °C 1020.9 hPa Calm   1.6 km/h 88% 0 mm
23:46 -8.8 °C -10.4 °C 1020.9 hPa Calm   1.6 km/h 88% 0 mm
23:51 -8.7 °C -10.3 °C 1020.9 hPa Calm     88% 0 mm
23:56 -8.5 °C -10 °C 1020.9 hPa SSW 1.6 km/h 4.8 km/h 89% 0 mm
Westford Weather
Compliments of Weather Underground

 
 
Current Radar Loop:

Copyright © WestfordWeather.net 2007-2014. All rights reserved.